Terminal Aerodrome Forecast
Issued by NWS Central Illinois

Home | Current Version | Previous Version | Text Only | Print | Product List | Glossary On
Versions: 1 2 3 4 5 6 7 8 9 10 11 12 13 14 15 16 17 18 19 20 21 22 23
231
FTUS43 KILX 271729
TAFSPI
TAF
KSPI 271729Z 2718/2818 07006KT 3SM -SHRA BR SCT025 OVC040
     FM272100 01008KT P6SM VCSH OVC025
     FM280700 36008KT P6SM OVC008
     FM281400 02008KT P6SM OVC012=

USA.gov is the U.S. government's official web portal to all federal, state and local government web resources and services.